Katy, TX (77449)

2:16 AM CDT on April 26, 2017 (GMT -0500)
Lakes of Bridgewater | | Change Station

Elev 141 ft 29.82 °N, 95.74 °W | Updated 1 minute ago

Overcast
Overcast
75.6 °F
Feels Like 77 °F
N
6.0
Wind Variable Wind from SSE

Today
High -- | Low -- °F
--% Chance of Precip.
Yesterday
High -- | Low -- °F
Precip. -- in
Pressure 29.57 in
Visibility 4.0 miles
Clouds Overcast 3000 ft
Heat Index 77 °F
Dew Point 68 °F
Humidity 79%
Rainfall 0.00 in
Snow Depth Not available.
6:44 AM 7:57 PM
Waning Crescent, 0% visible
METAR KTME 260635Z AUTO 16010KT 4SM BR OVC030 23/22 A2957 RMK AO2
Pressure 29.57 in
Visibility 4.0 miles
Clouds Overcast 3000 ft
Heat Index 77 °F
Dew Point 68 °F
Humidity 79%
Rainfall 0.00 in
Snow Depth Not available.
6:44 AM 7:57 PM
Waning Crescent, 0% visible
METAR KTME 260635Z AUTO 16010KT 4SM BR OVC030 23/22 A2957 RMK AO2

Get Severe Weather Alerts

Thanks for signing up!

Be on the lookout for a verification email in your inbox.

You'll start receiving the daily forecast at 8 AM.

×

10-Day Weather Forecast

Almanac

Astronomy

Apr. 26, 2017 Rise Set
Actual Time
Civil Twilight
Nautical Twilight
Astronomical Twilight
Moon
Length of Visible Light
Length of Day
Tomorrow will be .
, % of the Moon is Illuminated

Today's Extremes

State Highs State Lows

Community

WunderPhotos

WunderBlog® & News

Nearby

Air Quality

  Air Quality AQ Index Pollutant
Not available.

Snow Depth

Station Depth Elevation

Earthquake Activity

City Distance Mag. Time & Date
Minimum magnitude displayed is 2.5.

Coastal Water Temperatures

Place Temperature

Stations

Nearby Weather Stations

Station Location Temp. Windchill Dew Point Humidity Wind Precip. Elev Updated Type
                   

Watches & Warnings

There are currently no watches in effect.